ETD406 OMAA-RJAA
Flight info
| Callsign | ETD406 |
|---|---|
| Flight time | N/A |
| Altitude | 33000 |
| Route | KANIP N318 GEVED N881 RASKI/N0491F350 L639 BPL A791 CEA B465 CTG A599 LSO/N0485F370 A599 LINSO/K0895S1130 A599 SGM A581 WHA R343 PK W116 JTN G327 LAMEN/N0471F390 A593 SADLI Y590 BEDAR Y591 FUE Y23 KASTE Y81 RUTAS |
| Aircraft | A346/H-SDE2E3FGHIJ3J4J5M1RWXY/LB1D1 |
Departure
| Time | 2026-04-27 09:17 |
|---|---|
| Airport | Zayed International Airport (OMAA) |
Arrival
| Time | N/A |
|---|---|
| Airport | Narita International Airport (RJAA) |
| Time | Latitude | Longitude | Altitude | Speed | Heading |
|---|---|---|---|---|---|
| 2026-04-27 08:39 | 24.45145 | 54.64856 | 84 ft | 0 kts | 196° |
| 2026-04-27 09:00 | 24.45146 | 54.64856 | 84 ft | 0 kts | 196° |
| 2026-04-27 09:01 | 24.45167 | 54.64863 | 86 ft | 4 kts | 196° |
| 2026-04-27 09:01 | 24.45187 | 54.64870 | 85 ft | 4 kts | 206° |
| 2026-04-27 09:01 | 24.45206 | 54.64885 | 87 ft | 4 kts | 232° |
| 2026-04-27 09:01 | 24.45216 | 54.64908 | 87 ft | 4 kts | 258° |
| 2026-04-27 09:02 | 24.45218 | 54.64936 | 87 ft | 3 kts | 271° |
| 2026-04-27 09:02 | 24.45219 | 54.64918 | 86 ft | 4 kts | 276° |
| 2026-04-27 09:02 | 24.45223 | 54.64901 | 86 ft | 0 kts | 285° |
| 2026-04-27 09:04 | 24.45229 | 54.64876 | 85 ft | 11 kts | 285° |
| 2026-04-27 09:04 | 24.45252 | 54.64782 | 86 ft | 13 kts | 284° |
| 2026-04-27 09:04 | 24.45273 | 54.64678 | 85 ft | 14 kts | 280° |
| 2026-04-27 09:05 | 24.45291 | 54.64568 | 87 ft | 13 kts | 279° |
| 2026-04-27 09:05 | 24.45308 | 54.64485 | 86 ft | 12 kts | 292° |
| 2026-04-27 09:05 | 24.45370 | 54.64449 | 85 ft | 12 kts | 16° |
| 2026-04-27 09:05 | 24.45440 | 54.64506 | 85 ft | 14 kts | 38° |
| 2026-04-27 09:06 | 24.45518 | 54.64573 | 85 ft | 12 kts | 38° |
| 2026-04-27 09:06 | 24.45562 | 54.64612 | 86 ft | 6 kts | 46° |
| 2026-04-27 09:06 | 24.45577 | 54.64657 | 87 ft | 6 kts | 100° |
| 2026-04-27 09:06 | 24.45551 | 54.64703 | 87 ft | 8 kts | 127° |
| 2026-04-27 09:07 | 24.45494 | 54.64787 | 85 ft | 21 kts | 127° |
| 2026-04-27 09:07 | 24.45402 | 54.64916 | 86 ft | 22 kts | 128° |
| 2026-04-27 09:07 | 24.45308 | 54.65052 | 88 ft | 22 kts | 128° |
| 2026-04-27 09:07 | 24.45216 | 54.65182 | 87 ft | 15 kts | 128° |
| 2026-04-27 09:08 | 24.45138 | 54.65229 | 89 ft | 14 kts | 194° |
| 2026-04-27 09:08 | 24.45057 | 54.65163 | 88 ft | 16 kts | 219° |
| 2026-04-27 09:08 | 24.44960 | 54.65078 | 88 ft | 21 kts | 218° |
| 2026-04-27 09:08 | 24.44825 | 54.64965 | 88 ft | 27 kts | 217° |
| 2026-04-27 09:09 | 24.44670 | 54.64833 | 88 ft | 28 kts | 218° |
| 2026-04-27 09:09 | 24.44513 | 54.64701 | 87 ft | 28 kts | 217° |
| 2026-04-27 09:09 | 24.44357 | 54.64568 | 89 ft | 26 kts | 218° |
| 2026-04-27 09:09 | 24.44249 | 54.64414 | 88 ft | 26 kts | 231° |
| 2026-04-27 09:10 | 24.44129 | 54.64318 | 88 ft | 17 kts | 184° |
| 2026-04-27 09:10 | 24.44036 | 54.64397 | 89 ft | 20 kts | 128° |
| 2026-04-27 09:10 | 24.43948 | 54.64521 | 90 ft | 21 kts | 128° |
| 2026-04-27 09:10 | 24.43848 | 54.64661 | 89 ft | 28 kts | 128° |
| 2026-04-27 09:11 | 24.43715 | 54.64848 | 89 ft | 31 kts | 128° |
| 2026-04-27 09:11 | 24.43581 | 54.65036 | 87 ft | 31 kts | 128° |
| 2026-04-27 09:11 | 24.43449 | 54.65222 | 89 ft | 31 kts | 128° |
| 2026-04-27 09:11 | 24.43313 | 54.65413 | 87 ft | 34 kts | 128° |
| 2026-04-27 09:12 | 24.43171 | 54.65614 | 87 ft | 33 kts | 128° |
| 2026-04-27 09:12 | 24.43027 | 54.65817 | 86 ft | 36 kts | 128° |
| 2026-04-27 09:12 | 24.42868 | 54.66040 | 88 ft | 37 kts | 128° |
| 2026-04-27 09:12 | 24.42748 | 54.66208 | 87 ft | 20 kts | 128° |
| 2026-04-27 09:13 | 24.42722 | 54.66332 | 89 ft | 16 kts | 65° |
| 2026-04-27 09:13 | 24.42697 | 54.66440 | 89 ft | 16 kts | 127° |
| 2026-04-27 09:13 | 24.42623 | 54.66546 | 89 ft | 18 kts | 127° |
| 2026-04-27 09:13 | 24.42545 | 54.66657 | 87 ft | 18 kts | 128° |
| 2026-04-27 09:14 | 24.42466 | 54.66769 | 87 ft | 19 kts | 128° |
| 2026-04-27 09:14 | 24.42417 | 54.66838 | 87 ft | 5 kts | 128° |
| 2026-04-27 09:14 | 24.42382 | 54.66863 | 89 ft | 6 kts | 169° |
| 2026-04-27 09:14 | 24.42337 | 54.66844 | 86 ft | 8 kts | 217° |
| 2026-04-27 09:15 | 24.42293 | 54.66808 | 87 ft | 10 kts | 217° |
| 2026-04-27 09:15 | 24.42242 | 54.66763 | 85 ft | 9 kts | 219° |
| 2026-04-27 09:15 | 24.42207 | 54.66733 | 86 ft | 5 kts | 217° |
| 2026-04-27 09:15 | 24.42187 | 54.66705 | 87 ft | 4 kts | 257° |
| 2026-04-27 09:16 | 24.42194 | 54.66680 | 85 ft | 3 kts | 307° |
| 2026-04-27 09:16 | 24.42214 | 54.66651 | 87 ft | 14 kts | 308° |
| 2026-04-27 09:16 | 24.42402 | 54.66390 | 89 ft | 72 kts | 308° |
| 2026-04-27 09:16 | 24.42827 | 54.65791 | 88 ft | 125 kts | 308° |
| 2026-04-27 09:17 | 24.43457 | 54.64903 | 90 ft | 168 kts | 307° |
| 2026-04-27 09:17 | 24.44220 | 54.63833 | 401 ft | 179 kts | 309° |
| 2026-04-27 09:17 | 24.45002 | 54.62760 | 951 ft | 180 kts | 309° |
| 2026-04-27 09:17 | 24.45521 | 54.62038 | 1344 ft | 182 kts | 309° |
| 2026-04-27 09:18 | 24.46296 | 54.60949 | 1914 ft | 179 kts | 310° |
| 2026-04-27 09:18 | 24.47079 | 54.59854 | 2095 ft | 186 kts | 311° |
| 2026-04-27 09:18 | 24.47924 | 54.58701 | 2237 ft | 200 kts | 310° |
| 2026-04-27 09:18 | 24.48849 | 54.57466 | 2409 ft | 217 kts | 312° |
| 2026-04-27 09:19 | 24.49821 | 54.56135 | 2694 ft | 230 kts | 309° |
| 2026-04-27 09:19 | 24.50798 | 54.54683 | 2922 ft | 243 kts | 308° |
| 2026-04-27 09:19 | 24.51830 | 54.53163 | 3179 ft | 251 kts | 309° |
| 2026-04-27 09:19 | 24.52895 | 54.51622 | 3615 ft | 253 kts | 309° |
| 2026-04-27 09:20 | 24.53970 | 54.50088 | 4190 ft | 252 kts | 309° |
| 2026-04-27 09:20 | 24.55047 | 54.48560 | 4779 ft | 254 kts | 310° |
| 2026-04-27 09:20 | 24.56120 | 54.47039 | 5350 ft | 255 kts | 309° |
| 2026-04-27 09:20 | 24.57209 | 54.45500 | 5898 ft | 256 kts | 309° |
| 2026-04-27 09:21 | 24.58307 | 54.43947 | 6465 ft | 257 kts | 309° |
| 2026-04-27 09:21 | 24.59483 | 54.42464 | 7019 ft | 259 kts | 323° |
| 2026-04-27 09:21 | 24.61164 | 54.41767 | 7489 ft | 267 kts | 356° |
| 2026-04-27 09:21 | 24.63000 | 54.42231 | 7976 ft | 281 kts | 25° |
| 2026-04-27 09:22 | 24.64660 | 54.43418 | 8503 ft | 289 kts | 36° |
| 2026-04-27 09:22 | 24.65857 | 54.45244 | 8912 ft | 306 kts | 69° |
| 2026-04-27 09:22 | 24.66085 | 54.47569 | 9376 ft | 316 kts | 96° |
| 2026-04-27 09:22 | 24.65665 | 54.49961 | 9883 ft | 320 kts | 103° |
| 2026-04-27 09:23 | 24.65126 | 54.52379 | 10322 ft | 326 kts | 103° |
| 2026-04-27 09:23 | 24.64639 | 54.54864 | 10563 ft | 339 kts | 101° |
| 2026-04-27 09:23 | 24.64208 | 54.57466 | 10770 ft | 352 kts | 99° |
| 2026-04-27 09:23 | 24.63802 | 54.60169 | 10994 ft | 364 kts | 99° |
| 2026-04-27 09:24 | 24.63365 | 54.62962 | 11213 ft | 376 kts | 101° |
| 2026-04-27 09:24 | 24.62766 | 54.65815 | 11422 ft | 389 kts | 104° |
| 2026-04-27 09:24 | 24.62099 | 54.68756 | 11650 ft | 401 kts | 104° |
| 2026-04-27 09:24 | 24.61405 | 54.71771 | 11914 ft | 411 kts | 104° |
| 2026-04-27 09:25 | 24.60602 | 54.74808 | 12376 ft | 415 kts | 112° |
| 2026-04-27 09:25 | 24.59255 | 54.77599 | 12921 ft | 414 kts | 126° |
| 2026-04-27 09:25 | 24.57382 | 54.79991 | 13470 ft | 412 kts | 137° |
| 2026-04-27 09:25 | 24.55304 | 54.82172 | 13986 ft | 413 kts | 139° |
| 2026-04-27 09:26 | 24.53190 | 54.84350 | 14440 ft | 416 kts | 139° |
| 2026-04-27 09:26 | 24.51076 | 54.86543 | 14888 ft | 419 kts | 139° |
| 2026-04-27 09:26 | 24.48954 | 54.88760 | 15342 ft | 422 kts | 139° |
| 2026-04-27 09:26 | 24.46850 | 54.90968 | 15789 ft | 424 kts | 139° |
| 2026-04-27 09:27 | 24.44680 | 54.93251 | 16246 ft | 427 kts | 139° |
| 2026-04-27 09:27 | 24.42554 | 54.95488 | 16686 ft | 430 kts | 139° |
| 2026-04-27 09:27 | 24.40385 | 54.97770 | 17119 ft | 433 kts | 139° |
| 2026-04-27 09:27 | 24.38264 | 55.00002 | 17544 ft | 435 kts | 139° |
| 2026-04-27 09:28 | 24.36424 | 55.01936 | 17908 ft | 438 kts | 139° |
| 2026-04-27 09:28 | 24.34241 | 55.04301 | 18306 ft | 442 kts | 135° |
| 2026-04-27 09:28 | 24.32249 | 55.06894 | 18679 ft | 447 kts | 129° |
| 2026-04-27 09:28 | 24.30499 | 55.09727 | 19054 ft | 451 kts | 123° |
| 2026-04-27 09:29 | 24.28924 | 55.12724 | 19445 ft | 454 kts | 121° |
| 2026-04-27 09:29 | 24.27385 | 55.15757 | 19817 ft | 456 kts | 121° |
| 2026-04-27 09:29 | 24.25856 | 55.18779 | 20182 ft | 459 kts | 121° |
| 2026-04-27 09:29 | 24.24294 | 55.21850 | 20572 ft | 461 kts | 121° |
| 2026-04-27 09:30 | 24.22719 | 55.24927 | 20954 ft | 463 kts | 121° |
| 2026-04-27 09:30 | 24.21129 | 55.28020 | 21333 ft | 466 kts | 121° |
| 2026-04-27 09:30 | 24.19526 | 55.31134 | 21706 ft | 468 kts | 121° |
| 2026-04-27 09:30 | 24.17983 | 55.34300 | 22069 ft | 472 kts | 118° |
| 2026-04-27 09:31 | 24.16615 | 55.37528 | 22435 ft | 475 kts | 115° |
| 2026-04-27 09:31 | 24.15317 | 55.40880 | 22797 ft | 477 kts | 114° |
| 2026-04-27 09:31 | 24.14029 | 55.44247 | 23164 ft | 480 kts | 114° |
| 2026-04-27 09:31 | 24.12734 | 55.47633 | 23504 ft | 482 kts | 114° |
| 2026-04-27 09:32 | 24.11430 | 55.51034 | 23792 ft | 485 kts | 114° |
| 2026-04-27 09:32 | 24.10114 | 55.54454 | 24065 ft | 488 kts | 114° |
| 2026-04-27 09:32 | 24.08801 | 55.57856 | 24337 ft | 490 kts | 114° |
| 2026-04-27 09:32 | 24.07465 | 55.61314 | 24608 ft | 493 kts | 114° |
| 2026-04-27 09:33 | 24.06072 | 55.64763 | 24886 ft | 495 kts | 117° |
| 2026-04-27 09:33 | 24.04520 | 55.68155 | 25161 ft | 498 kts | 119° |
| 2026-04-27 09:33 | 24.02918 | 55.71529 | 25435 ft | 500 kts | 119° |
| 2026-04-27 09:33 | 24.01299 | 55.74917 | 25713 ft | 503 kts | 119° |
| 2026-04-27 09:34 | 24.00000 | 55.77631 | 25900 ft | 505 kts | 119° |
| 2026-04-27 09:34 | 23.98353 | 55.81074 | 26153 ft | 508 kts | 120° |
| 2026-04-27 09:34 | 23.96728 | 55.84473 | 26431 ft | 510 kts | 119° |
| 2026-04-27 09:34 | 23.95077 | 55.87926 | 26672 ft | 513 kts | 119° |
| 2026-04-27 09:35 | 23.93418 | 55.91395 | 26912 ft | 516 kts | 119° |
| 2026-04-27 09:35 | 23.91742 | 55.94896 | 27172 ft | 519 kts | 119° |
| 2026-04-27 09:35 | 23.90060 | 55.98408 | 27419 ft | 522 kts | 119° |
| 2026-04-27 09:35 | 23.88372 | 56.01934 | 27651 ft | 524 kts | 119° |
| 2026-04-27 09:36 | 23.86695 | 56.05436 | 27889 ft | 527 kts | 119° |
| 2026-04-27 09:36 | 23.84987 | 56.09002 | 28132 ft | 529 kts | 119° |
| 2026-04-27 09:36 | 23.83277 | 56.12571 | 28399 ft | 530 kts | 119° |
| 2026-04-27 09:36 | 23.81559 | 56.16154 | 28756 ft | 530 kts | 120° |
| 2026-04-27 09:37 | 23.79842 | 56.19729 | 29080 ft | 530 kts | 120° |
| 2026-04-27 09:37 | 23.78124 | 56.23303 | 29402 ft | 531 kts | 120° |
| 2026-04-27 09:37 | 23.76401 | 56.26882 | 29703 ft | 531 kts | 120° |
| 2026-04-27 09:37 | 23.74679 | 56.30455 | 30002 ft | 531 kts | 120° |
| 2026-04-27 09:38 | 23.72954 | 56.34030 | 30266 ft | 531 kts | 119° |
| 2026-04-27 09:38 | 23.71233 | 56.37598 | 30572 ft | 530 kts | 119° |
| 2026-04-27 09:38 | 23.69513 | 56.41158 | 30880 ft | 529 kts | 119° |
| 2026-04-27 09:38 | 23.67791 | 56.44721 | 31169 ft | 529 kts | 119° |
| 2026-04-27 09:39 | 23.66074 | 56.48271 | 31411 ft | 529 kts | 119° |
| 2026-04-27 09:39 | 23.64351 | 56.51832 | 31626 ft | 530 kts | 119° |
| 2026-04-27 09:39 | 23.62622 | 56.55404 | 31835 ft | 531 kts | 118° |
| 2026-04-27 09:39 | 23.60914 | 56.58929 | 32046 ft | 532 kts | 118° |
| 2026-04-27 09:40 | 23.59179 | 56.62507 | 32272 ft | 533 kts | 118° |
| 2026-04-27 09:40 | 23.57443 | 56.66085 | 32465 ft | 534 kts | 118° |
| 2026-04-27 09:40 | 23.55701 | 56.69674 | 32655 ft | 535 kts | 118° |
| 2026-04-27 09:40 | 23.53955 | 56.73268 | 32836 ft | 536 kts | 118° |
| 2026-04-27 09:41 | 23.52205 | 56.76867 | 32869 ft | 537 kts | 118° |
| 2026-04-27 09:41 | 23.48701 | 56.84070 | 32883 ft | 537 kts | 118° |
| 2026-04-27 09:42 | 23.45190 | 56.91273 | 32880 ft | 538 kts | 118° |
| 2026-04-27 09:42 | 23.41668 | 56.98483 | 32887 ft | 538 kts | 118° |
| 2026-04-27 09:43 | 23.38499 | 57.04961 | 32888 ft | 538 kts | 118° |
| 2026-04-27 09:43 | 23.35105 | 57.12174 | 32882 ft | 537 kts | 116° |
| 2026-04-27 09:44 | 23.31832 | 57.19491 | 32884 ft | 537 kts | 116° |
| 2026-04-27 09:44 | 23.28545 | 57.26798 | 32887 ft | 537 kts | 116° |
| 2026-04-27 09:45 | 23.25234 | 57.34102 | 32887 ft | 537 kts | 116° |
| 2026-04-27 09:45 | 23.21934 | 57.41351 | 32889 ft | 537 kts | 116° |
| 2026-04-27 09:46 | 23.18612 | 57.48639 | 32884 ft | 537 kts | 116° |
| 2026-04-27 09:46 | 23.15286 | 57.55924 | 32873 ft | 536 kts | 116° |
| 2026-04-27 09:47 | 23.11963 | 57.63192 | 32879 ft | 536 kts | 116° |
| 2026-04-27 09:47 | 23.08653 | 57.70415 | 32870 ft | 535 kts | 116° |
| 2026-04-27 09:48 | 23.05450 | 57.77730 | 32868 ft | 534 kts | 111° |
| 2026-04-27 09:48 | 23.03144 | 57.85407 | 32865 ft | 534 kts | 102° |
| 2026-04-27 09:49 | 23.01934 | 57.93361 | 32853 ft | 532 kts | 93° |
| 2026-04-27 09:49 | 23.01734 | 58.00615 | 32848 ft | 531 kts | 88° |
| 2026-04-27 09:50 | 23.01780 | 58.08591 | 32838 ft | 531 kts | 87° |
| 2026-04-27 09:50 | 23.01807 | 58.16631 | 32834 ft | 531 kts | 88° |
| 2026-04-27 09:51 | 23.01805 | 58.24677 | 32833 ft | 531 kts | 88° |
| 2026-04-27 09:51 | 23.01792 | 58.32706 | 32826 ft | 531 kts | 88° |
| 2026-04-27 09:52 | 23.01881 | 58.40732 | 32825 ft | 530 kts | 86° |
| 2026-04-27 09:52 | 23.02154 | 58.48680 | 32820 ft | 530 kts | 85° |
| 2026-04-27 09:53 | 23.02433 | 58.56702 | 32812 ft | 529 kts | 85° |
| 2026-04-27 09:53 | 23.02700 | 58.64717 | 32808 ft | 529 kts | 85° |
| 2026-04-27 09:54 | 23.02957 | 58.72665 | 32806 ft | 529 kts | 85° |
| 2026-04-27 09:54 | 23.03213 | 58.80666 | 32802 ft | 529 kts | 86° |
| 2026-04-27 09:55 | 23.03464 | 58.88664 | 32798 ft | 529 kts | 86° |
| 2026-04-27 09:55 | 23.03813 | 59.00005 | 32794 ft | 528 kts | 86° |
| 2026-04-27 09:56 | 23.04049 | 59.07789 | 32792 ft | 528 kts | 86° |
| 2026-04-27 09:56 | 23.04283 | 59.15777 | 32787 ft | 528 kts | 86° |
| 2026-04-27 09:57 | 23.04512 | 59.23756 | 32783 ft | 527 kts | 86° |
| 2026-04-27 09:57 | 23.04736 | 59.31732 | 32775 ft | 527 kts | 86° |
| 2026-04-27 09:58 | 23.04947 | 59.39704 | 32768 ft | 527 kts | 87° |
| 2026-04-27 09:58 | 23.05075 | 59.47636 | 32765 ft | 527 kts | 87° |
| 2026-04-27 09:59 | 23.05188 | 59.55616 | 32758 ft | 527 kts | 87° |
| 2026-04-27 09:59 | 23.05304 | 59.63582 | 32759 ft | 527 kts | 87° |
| 2026-04-27 10:00 | 23.05418 | 59.71560 | 32753 ft | 527 kts | 87° |
| 2026-04-27 10:00 | 23.05529 | 59.79520 | 32754 ft | 526 kts | 87° |
| 2026-04-27 10:01 | 23.05634 | 59.87445 | 32749 ft | 526 kts | 87° |
| 2026-04-27 10:01 | 23.05738 | 59.95400 | 32756 ft | 526 kts | 87° |
| 2026-04-27 10:02 | 23.05829 | 60.02580 | 32755 ft | 526 kts | 87° |
| 2026-04-27 10:02 | 23.05925 | 60.10537 | 32751 ft | 526 kts | 88° |
| 2026-04-27 10:03 | 23.06015 | 60.18454 | 32751 ft | 526 kts | 88° |
| 2026-04-27 10:03 | 23.06102 | 60.26417 | 32753 ft | 526 kts | 88° |
| 2026-04-27 10:04 | 23.06184 | 60.34375 | 32753 ft | 526 kts | 88° |
| 2026-04-27 10:04 | 23.06263 | 60.42303 | 32752 ft | 526 kts | 88° |
| 2026-04-27 10:05 | 23.06337 | 60.50279 | 32756 ft | 526 kts | 88° |
| 2026-04-27 10:05 | 23.06407 | 60.58206 | 32756 ft | 526 kts | 88° |
| 2026-04-27 10:06 | 23.06474 | 60.66161 | 32755 ft | 526 kts | 88° |
| 2026-04-27 10:06 | 23.06530 | 60.72778 | 32757 ft | 525 kts | 88° |
| 2026-04-27 10:07 | 23.06593 | 60.80733 | 32756 ft | 525 kts | 88° |
| 2026-04-27 10:07 | 23.06651 | 60.88687 | 32756 ft | 525 kts | 88° |
| 2026-04-27 10:08 | 23.06703 | 60.96625 | 32754 ft | 524 kts | 88° |
| 2026-04-27 10:08 | 23.06748 | 61.03777 | 32753 ft | 524 kts | 88° |
| 2026-04-27 10:09 | 23.06793 | 61.11658 | 32755 ft | 524 kts | 88° |
| 2026-04-27 10:09 | 23.06834 | 61.19596 | 32757 ft | 524 kts | 88° |
| 2026-04-27 10:10 | 23.06871 | 61.27535 | 32758 ft | 524 kts | 88° |
| 2026-04-27 10:10 | 23.06904 | 61.35483 | 32755 ft | 524 kts | 89° |
| 2026-04-27 10:11 | 23.06932 | 61.43369 | 32749 ft | 524 kts | 89° |
| 2026-04-27 10:11 | 23.06957 | 61.51313 | 32748 ft | 524 kts | 89° |
| 2026-04-27 10:12 | 23.06979 | 61.59240 | 32755 ft | 524 kts | 89° |
| 2026-04-27 10:12 | 23.06994 | 61.67125 | 32750 ft | 524 kts | 89° |
| 2026-04-27 10:13 | 23.07005 | 61.75058 | 32753 ft | 524 kts | 89° |
| 2026-04-27 10:13 | 23.07015 | 61.82986 | 32751 ft | 524 kts | 89° |
| 2026-04-27 10:14 | 23.07019 | 61.90912 | 32752 ft | 523 kts | 89° |
| 2026-04-27 10:14 | 23.07019 | 61.98830 | 32749 ft | 523 kts | 89° |
| 2026-04-27 10:15 | 23.07015 | 62.06208 | 32754 ft | 523 kts | 89° |
| 2026-04-27 10:15 | 23.07007 | 62.14129 | 32749 ft | 523 kts | 89° |
| 2026-04-27 10:16 | 23.06994 | 62.22044 | 32754 ft | 523 kts | 89° |
| 2026-04-27 10:16 | 23.06978 | 62.29903 | 32751 ft | 522 kts | 89° |
| 2026-04-27 10:17 | 23.06958 | 62.37802 | 32744 ft | 522 kts | 89° |
| 2026-04-27 10:17 | 23.06934 | 62.45694 | 32746 ft | 521 kts | 89° |
| 2026-04-27 10:18 | 23.06906 | 62.53587 | 32752 ft | 521 kts | 89° |
| 2026-04-27 10:18 | 23.06873 | 62.61467 | 32753 ft | 521 kts | 89° |
| 2026-04-27 10:19 | 23.06838 | 62.69285 | 32752 ft | 520 kts | 89° |
| 2026-04-27 10:19 | 23.06799 | 62.77150 | 32744 ft | 519 kts | 89° |
| 2026-04-27 10:20 | 23.06755 | 62.85001 | 32745 ft | 519 kts | 89° |
| 2026-04-27 10:20 | 23.06708 | 62.92849 | 32740 ft | 518 kts | 89° |
| 2026-04-27 10:21 | 23.06661 | 63.00004 | 32748 ft | 518 kts | 89° |
| 2026-04-27 10:21 | 23.06607 | 63.07756 | 32741 ft | 517 kts | 89° |
| 2026-04-27 10:22 | 23.06549 | 63.15570 | 32745 ft | 516 kts | 90° |
| 2026-04-27 10:22 | 23.06487 | 63.23327 | 32744 ft | 516 kts | 90° |
| 2026-04-27 10:23 | 23.06421 | 63.31126 | 32740 ft | 515 kts | 90° |
| 2026-04-27 10:23 | 23.06351 | 63.38919 | 32742 ft | 514 kts | 90° |
| 2026-04-27 10:24 | 23.06278 | 63.46709 | 32740 ft | 514 kts | 90° |
| 2026-04-27 10:24 | 23.06200 | 63.54477 | 32741 ft | 513 kts | 90° |
| 2026-04-27 10:25 | 23.06119 | 63.62228 | 32741 ft | 512 kts | 90° |
| 2026-04-27 10:25 | 23.06034 | 63.69933 | 32736 ft | 512 kts | 90° |
| 2026-04-27 10:26 | 23.05945 | 63.77673 | 32736 ft | 511 kts | 90° |
| 2026-04-27 10:26 | 23.05822 | 63.85424 | 32744 ft | 511 kts | 92° |
| 2026-04-27 10:27 | 23.05208 | 63.93136 | 32740 ft | 511 kts | 96° |
| 2026-04-27 10:27 | 23.04505 | 64.00000 | 32742 ft | 511 kts | 96° |
| 2026-04-27 10:28 | 23.03708 | 64.07722 | 32742 ft | 510 kts | 96° |
| 2026-04-27 10:28 | 23.02917 | 64.15408 | 32742 ft | 510 kts | 96° |
| 2026-04-27 10:29 | 23.02131 | 64.23027 | 32740 ft | 510 kts | 96° |
| 2026-04-27 10:29 | 23.01338 | 64.30691 | 32743 ft | 509 kts | 96° |
| 2026-04-27 10:30 | 23.00542 | 64.38350 | 32742 ft | 509 kts | 96° |
| 2026-04-27 10:30 | 22.99739 | 64.46034 | 32742 ft | 509 kts | 96° |
| 2026-04-27 10:31 | 22.98937 | 64.53665 | 32739 ft | 508 kts | 96° |
| 2026-04-27 10:31 | 22.98131 | 64.61305 | 32738 ft | 508 kts | 96° |
| 2026-04-27 10:32 | 22.97327 | 64.68888 | 32739 ft | 508 kts | 96° |
| 2026-04-27 10:32 | 22.96514 | 64.76521 | 32737 ft | 507 kts | 96° |
| 2026-04-27 10:33 | 22.95867 | 64.84153 | 32741 ft | 506 kts | 92° |
| 2026-04-27 10:33 | 22.95815 | 64.91760 | 32744 ft | 505 kts | 89° |
| 2026-04-27 10:34 | 22.95871 | 64.99393 | 32766 ft | 506 kts | 89° |
| 2026-04-27 10:34 | 22.95916 | 65.06382 | 32747 ft | 515 kts | 89° |
| 2026-04-27 10:35 | 22.95959 | 65.14174 | 32743 ft | 516 kts | 89° |
| 2026-04-27 10:35 | 22.95995 | 65.21977 | 32741 ft | 516 kts | 89° |
| 2026-04-27 10:36 | 22.96027 | 65.29731 | 32742 ft | 516 kts | 89° |
| 2026-04-27 10:36 | 22.96055 | 65.37537 | 32745 ft | 516 kts | 89° |
| 2026-04-27 10:37 | 22.96078 | 65.45324 | 32740 ft | 516 kts | 89° |
| 2026-04-27 10:37 | 22.96098 | 65.53128 | 32742 ft | 516 kts | 89° |
| 2026-04-27 10:38 | 22.96114 | 65.60923 | 32739 ft | 515 kts | 89° |
| 2026-04-27 10:38 | 22.96127 | 65.68722 | 32743 ft | 515 kts | 89° |
| 2026-04-27 10:39 | 22.96135 | 65.76461 | 32739 ft | 515 kts | 89° |
| 2026-04-27 10:39 | 22.96140 | 65.84250 | 32740 ft | 515 kts | 89° |
| 2026-04-27 10:40 | 22.96141 | 65.92044 | 32744 ft | 515 kts | 89° |
| 2026-04-27 10:40 | 22.96138 | 65.99831 | 32743 ft | 515 kts | 89° |
| 2026-04-27 10:41 | 22.96132 | 66.06859 | 32744 ft | 515 kts | 89° |
| 2026-04-27 10:41 | 22.96122 | 66.14604 | 32743 ft | 515 kts | 89° |
| 2026-04-27 10:42 | 22.96108 | 66.22385 | 32743 ft | 515 kts | 89° |
| 2026-04-27 10:42 | 22.96090 | 66.30183 | 32741 ft | 515 kts | 90° |
| 2026-04-27 10:43 | 22.96068 | 66.37973 | 32742 ft | 515 kts | 90° |
| 2026-04-27 10:43 | 22.96043 | 66.45706 | 32742 ft | 515 kts | 90° |
| 2026-04-27 10:44 | 22.96014 | 66.53483 | 32744 ft | 515 kts | 90° |
| 2026-04-27 10:44 | 22.95981 | 66.61263 | 32746 ft | 514 kts | 90° |
| 2026-04-27 10:45 | 22.95944 | 66.69057 | 32745 ft | 514 kts | 90° |
| 2026-04-27 10:45 | 22.95903 | 66.76791 | 32747 ft | 515 kts | 90° |
| 2026-04-27 10:46 | 22.95858 | 66.84583 | 32746 ft | 515 kts | 90° |
| 2026-04-27 10:46 | 22.95809 | 66.92366 | 32745 ft | 515 kts | 90° |
| 2026-04-27 10:47 | 22.95777 | 66.98835 | 32746 ft | 514 kts | 89° |
| 2026-04-27 10:47 | 22.95800 | 67.07152 | 32734 ft | 514 kts | 89° |
| 2026-04-27 10:48 | 22.95824 | 67.14937 | 32744 ft | 515 kts | 89° |
| 2026-04-27 10:48 | 22.95839 | 67.22716 | 32734 ft | 515 kts | 89° |
| 2026-04-27 10:49 | 22.95847 | 67.30450 | 32746 ft | 515 kts | 89° |
| 2026-04-27 10:49 | 22.95850 | 67.38227 | 32746 ft | 515 kts | 90° |
| 2026-04-27 10:50 | 22.95850 | 67.46008 | 32742 ft | 515 kts | 90° |
| 2026-04-27 10:50 | 22.95845 | 67.53805 | 32740 ft | 515 kts | 90° |
| 2026-04-27 10:51 | 22.95837 | 67.61582 | 32754 ft | 515 kts | 90° |
| 2026-04-27 10:51 | 22.95825 | 67.69314 | 32751 ft | 515 kts | 90° |
| 2026-04-27 10:52 | 22.95809 | 67.77113 | 32749 ft | 514 kts | 90° |
| 2026-04-27 10:52 | 22.95789 | 67.84903 | 32741 ft | 515 kts | 90° |
| 2026-04-27 10:53 | 22.95790 | 67.96518 | 32747 ft | 514 kts | 90° |
| 2026-04-27 10:54 | 22.95801 | 68.03526 | 32742 ft | 514 kts | 90° |
| 2026-04-27 10:54 | 22.95804 | 68.09990 | 32747 ft | 514 kts | 90° |
| 2026-04-27 10:55 | 22.95804 | 68.17761 | 32747 ft | 514 kts | 90° |
| 2026-04-27 10:55 | 22.95799 | 68.25538 | 32746 ft | 514 kts | 90° |
| 2026-04-27 10:56 | 22.95789 | 68.33313 | 32748 ft | 514 kts | 90° |
| 2026-04-27 10:56 | 22.95612 | 68.41029 | 32747 ft | 513 kts | 93° |
| 2026-04-27 10:57 | 22.95174 | 68.48783 | 32751 ft | 513 kts | 94° |
| 2026-04-27 10:57 | 22.94720 | 68.56529 | 32750 ft | 513 kts | 94° |
| 2026-04-27 10:58 | 22.94266 | 68.64271 | 32751 ft | 513 kts | 94° |
| 2026-04-27 10:58 | 22.93812 | 68.72008 | 32750 ft | 513 kts | 94° |
| 2026-04-27 10:59 | 22.93358 | 68.79701 | 32756 ft | 513 kts | 94° |
| 2026-04-27 10:59 | 22.92897 | 68.87434 | 32752 ft | 512 kts | 94° |
| 2026-04-27 11:00 | 22.92198 | 68.99039 | 32750 ft | 512 kts | 94° |
| 2026-04-27 11:00 | 22.91775 | 69.06003 | 32752 ft | 512 kts | 94° |
| 2026-04-27 11:01 | 22.91302 | 69.13739 | 32749 ft | 512 kts | 94° |
| 2026-04-27 11:01 | 22.90825 | 69.21463 | 32749 ft | 512 kts | 94° |
| 2026-04-27 11:02 | 22.90348 | 69.29142 | 32755 ft | 513 kts | 94° |
| 2026-04-27 11:02 | 22.89863 | 69.36874 | 32749 ft | 513 kts | 94° |
| 2026-04-27 11:03 | 22.89374 | 69.44621 | 32754 ft | 513 kts | 94° |
| 2026-04-27 11:03 | 22.88880 | 69.52375 | 32754 ft | 514 kts | 94° |
| 2026-04-27 11:04 | 22.88383 | 69.60118 | 32748 ft | 514 kts | 94° |
| 2026-04-27 11:04 | 22.87880 | 69.67870 | 32740 ft | 515 kts | 94° |
| 2026-04-27 11:05 | 22.87403 | 69.75636 | 32748 ft | 515 kts | 94° |
| 2026-04-27 11:05 | 22.86964 | 69.83359 | 32750 ft | 514 kts | 94° |
| 2026-04-27 11:06 | 22.86516 | 69.91120 | 32745 ft | 514 kts | 94° |
| 2026-04-27 11:06 | 22.86060 | 69.98889 | 32742 ft | 514 kts | 94° |
| 2026-04-27 11:07 | 22.85648 | 70.05836 | 32743 ft | 514 kts | 94° |
| 2026-04-27 11:07 | 22.85184 | 70.13606 | 32742 ft | 514 kts | 94° |
| 2026-04-27 11:08 | 22.84715 | 70.21369 | 32742 ft | 514 kts | 94° |
| 2026-04-27 11:08 | 22.84244 | 70.29125 | 32743 ft | 514 kts | 94° |
| 2026-04-27 11:09 | 22.83769 | 70.36870 | 32747 ft | 514 kts | 94° |
| 2026-04-27 11:09 | 22.83290 | 70.44621 | 32743 ft | 514 kts | 94° |
| 2026-04-27 11:10 | 22.82810 | 70.52323 | 32751 ft | 514 kts | 94° |
| 2026-04-27 11:10 | 22.82323 | 70.60082 | 32743 ft | 514 kts | 94° |
| 2026-04-27 11:11 | 22.81832 | 70.67837 | 32741 ft | 514 kts | 94° |
| 2026-04-27 11:11 | 22.81339 | 70.75592 | 32743 ft | 514 kts | 93° |
| 2026-04-27 11:12 | 22.81264 | 70.83300 | 32735 ft | 515 kts | 87° |
| 2026-04-27 11:12 | 22.81963 | 70.91036 | 32735 ft | 514 kts | 81° |
| 2026-04-27 11:13 | 22.83114 | 70.98726 | 32732 ft | 514 kts | 80° |
| 2026-04-27 11:13 | 22.84162 | 71.05612 | 32731 ft | 514 kts | 80° |
| 2026-04-27 11:14 | 22.85316 | 71.13283 | 32726 ft | 514 kts | 80° |
| 2026-04-27 11:14 | 22.86461 | 71.20959 | 32719 ft | 514 kts | 80° |
| 2026-04-27 11:15 | 22.87600 | 71.28637 | 32713 ft | 514 kts | 80° |
| 2026-04-27 11:15 | 22.88733 | 71.36306 | 32710 ft | 514 kts | 81° |
| 2026-04-27 11:16 | 22.89863 | 71.43980 | 32709 ft | 514 kts | 81° |
| 2026-04-27 11:16 | 22.90980 | 71.51597 | 32703 ft | 514 kts | 81° |
| 2026-04-27 11:17 | 22.92104 | 71.59278 | 32702 ft | 514 kts | 81° |
| 2026-04-27 11:17 | 22.93224 | 71.66963 | 32696 ft | 514 kts | 81° |
| 2026-04-27 11:18 | 22.94331 | 71.74587 | 32695 ft | 513 kts | 81° |
| 2026-04-27 11:18 | 22.95441 | 71.82260 | 32686 ft | 513 kts | 81° |
| 2026-04-27 11:19 | 22.96547 | 71.89927 | 32692 ft | 513 kts | 81° |
| 2026-04-27 11:19 | 22.97651 | 71.97613 | 32687 ft | 513 kts | 81° |
| 2026-04-27 11:20 | 22.98633 | 72.04468 | 32684 ft | 513 kts | 81° |
| 2026-04-27 11:20 | 22.99729 | 72.12144 | 32685 ft | 513 kts | 81° |
| 2026-04-27 11:21 | 23.00822 | 72.19833 | 32681 ft | 513 kts | 81° |
| 2026-04-27 11:21 | 23.01909 | 72.27505 | 32679 ft | 513 kts | 81° |
| 2026-04-27 11:22 | 23.02993 | 72.35179 | 32678 ft | 513 kts | 81° |
| 2026-04-27 11:22 | 23.04064 | 72.42787 | 32675 ft | 512 kts | 81° |
| 2026-04-27 11:23 | 23.05138 | 72.50451 | 32676 ft | 512 kts | 81° |
| 2026-04-27 11:23 | 23.06211 | 72.58134 | 32674 ft | 512 kts | 81° |
| 2026-04-27 11:24 | 23.07049 | 72.65828 | 32676 ft | 512 kts | 85° |
| 2026-04-27 11:24 | 23.07497 | 72.73562 | 32677 ft | 512 kts | 86° |
| 2026-04-27 11:25 | 23.07916 | 72.81258 | 32679 ft | 512 kts | 86° |
| 2026-04-27 11:25 | 23.08340 | 72.89004 | 32677 ft | 512 kts | 86° |
| 2026-04-27 11:26 | 23.08762 | 72.96734 | 32685 ft | 512 kts | 86° |
| 2026-04-27 11:26 | 23.09142 | 73.03717 | 32691 ft | 512 kts | 86° |
| 2026-04-27 11:27 | 23.09560 | 73.11457 | 32693 ft | 512 kts | 86° |
| 2026-04-27 11:27 | 23.09971 | 73.19143 | 32700 ft | 512 kts | 86° |
| 2026-04-27 11:28 | 23.10381 | 73.26882 | 32699 ft | 512 kts | 86° |
| 2026-04-27 11:28 | 23.10788 | 73.34624 | 32700 ft | 512 kts | 86° |
| 2026-04-27 11:29 | 23.11191 | 73.42364 | 32706 ft | 512 kts | 86° |
| 2026-04-27 11:29 | 23.11589 | 73.50102 | 32710 ft | 512 kts | 86° |
| 2026-04-27 11:30 | 23.11985 | 73.57848 | 32715 ft | 512 kts | 86° |
| 2026-04-27 11:30 | 23.12376 | 73.65591 | 32718 ft | 512 kts | 86° |
| 2026-04-27 11:31 | 23.12761 | 73.73287 | 32721 ft | 512 kts | 86° |
| 2026-04-27 11:31 | 23.13145 | 73.81024 | 32723 ft | 512 kts | 86° |
| 2026-04-27 11:32 | 23.13525 | 73.88766 | 32732 ft | 512 kts | 86° |
| 2026-04-27 11:32 | 23.13901 | 73.96503 | 32735 ft | 512 kts | 86° |
| 2026-04-27 11:33 | 23.14237 | 74.03497 | 32743 ft | 512 kts | 86° |
| 2026-04-27 11:33 | 23.14607 | 74.11250 | 32746 ft | 513 kts | 86° |
| 2026-04-27 11:34 | 23.14970 | 74.18966 | 32752 ft | 513 kts | 86° |
| 2026-04-27 11:34 | 23.15332 | 74.26731 | 32754 ft | 513 kts | 86° |
| 2026-04-27 11:35 | 23.15690 | 74.34503 | 32760 ft | 514 kts | 87° |
| 2026-04-27 11:35 | 23.15889 | 74.42268 | 32760 ft | 514 kts | 89° |
| 2026-04-27 11:36 | 23.16029 | 74.50050 | 32763 ft | 514 kts | 89° |
| 2026-04-27 11:36 | 23.16174 | 74.57771 | 32770 ft | 514 kts | 88° |
| 2026-04-27 11:37 | 23.16325 | 74.65559 | 32777 ft | 514 kts | 88° |
| 2026-04-27 11:37 | 23.16475 | 74.73342 | 32777 ft | 515 kts | 88° |
| 2026-04-27 11:38 | 23.16623 | 74.81142 | 32783 ft | 515 kts | 88° |
| 2026-04-27 11:38 | 23.16766 | 74.88893 | 32788 ft | 515 kts | 89° |
| 2026-04-27 11:39 | 23.16906 | 74.96696 | 32794 ft | 515 kts | 89° |
| 2026-04-27 11:39 | 23.17029 | 75.03744 | 32791 ft | 515 kts | 89° |
| 2026-04-27 11:40 | 23.17140 | 75.10227 | 32796 ft | 515 kts | 89° |
| 2026-04-27 11:40 | 23.17290 | 75.19315 | 32805 ft | 515 kts | 89° |
| 2026-04-27 11:41 | 23.17396 | 75.25851 | 32800 ft | 515 kts | 89° |
| 2026-04-27 11:41 | 23.17517 | 75.33658 | 32799 ft | 515 kts | 89° |
| 2026-04-27 11:42 | 23.17635 | 75.41417 | 32804 ft | 515 kts | 89° |
| 2026-04-27 11:42 | 23.17749 | 75.49228 | 32800 ft | 516 kts | 89° |
| 2026-04-27 11:43 | 23.17859 | 75.57033 | 32799 ft | 516 kts | 89° |
| 2026-04-27 11:43 | 23.17966 | 75.64841 | 32794 ft | 516 kts | 89° |
| 2026-04-27 11:44 | 23.18068 | 75.72668 | 32791 ft | 516 kts | 89° |
| 2026-04-27 11:44 | 23.18167 | 75.80498 | 32781 ft | 517 kts | 89° |
| 2026-04-27 11:45 | 23.18262 | 75.88324 | 32775 ft | 517 kts | 89° |
| 2026-04-27 11:45 | 23.18353 | 75.96108 | 32775 ft | 517 kts | 89° |
| 2026-04-27 11:46 | 23.18696 | 76.03957 | 32760 ft | 517 kts | 85° |
| 2026-04-27 11:46 | 23.19306 | 76.11772 | 32759 ft | 517 kts | 85° |
| 2026-04-27 11:47 | 23.19924 | 76.19591 | 32751 ft | 517 kts | 85° |
| 2026-04-27 11:47 | 23.20526 | 76.27355 | 32746 ft | 517 kts | 85° |
| 2026-04-27 11:48 | 23.21125 | 76.35166 | 32737 ft | 517 kts | 85° |
| 2026-04-27 11:48 | 23.21720 | 76.42980 | 32731 ft | 517 kts | 85° |
| 2026-04-27 11:49 | 23.22310 | 76.50788 | 32721 ft | 518 kts | 85° |
| 2026-04-27 11:49 | 23.22897 | 76.58606 | 32715 ft | 518 kts | 85° |
| 2026-04-27 11:50 | 23.23477 | 76.66390 | 32709 ft | 518 kts | 85° |
| 2026-04-27 11:50 | 23.24057 | 76.74220 | 32707 ft | 518 kts | 85° |
| 2026-04-27 11:51 | 23.24632 | 76.82045 | 32701 ft | 518 kts | 85° |
| 2026-04-27 11:52 | 23.25488 | 76.93779 | 32697 ft | 518 kts | 85° |
| 2026-04-27 11:52 | 23.26051 | 77.01572 | 32689 ft | 518 kts | 85° |
| 2026-04-27 11:53 | 23.26613 | 77.09394 | 32685 ft | 518 kts | 85° |
| 2026-04-27 11:53 | 23.27171 | 77.17222 | 32682 ft | 517 kts | 85° |
| 2026-04-27 11:54 | 23.27721 | 77.24996 | 32680 ft | 517 kts | 85° |
| 2026-04-27 11:54 | 23.28198 | 77.32818 | 32678 ft | 516 kts | 88° |
| 2026-04-27 11:55 | 23.28076 | 77.40647 | 32679 ft | 516 kts | 92° |
| 2026-04-27 11:55 | 23.27749 | 77.48410 | 32678 ft | 516 kts | 93° |
| 2026-04-27 11:56 | 23.27414 | 77.56212 | 32680 ft | 516 kts | 93° |
| 2026-04-27 11:56 | 23.27082 | 77.64031 | 32671 ft | 516 kts | 93° |
| 2026-04-27 11:57 | 23.26749 | 77.71857 | 32674 ft | 516 kts | 93° |
| 2026-04-27 11:57 | 23.26413 | 77.79677 | 32674 ft | 517 kts | 93° |
| 2026-04-27 11:58 | 23.26076 | 77.87455 | 32670 ft | 517 kts | 93° |
| 2026-04-27 11:58 | 23.25732 | 77.95296 | 32665 ft | 518 kts | 93° |
| 2026-04-27 11:59 | 23.25418 | 78.02359 | 32663 ft | 518 kts | 93° |
| 2026-04-27 11:59 | 23.25065 | 78.10215 | 32665 ft | 519 kts | 93° |
| 2026-04-27 12:00 | 23.24709 | 78.18074 | 32662 ft | 519 kts | 93° |
| 2026-04-27 12:00 | 23.24351 | 78.25887 | 32659 ft | 520 kts | 93° |
| 2026-04-27 12:01 | 23.23986 | 78.33760 | 32664 ft | 520 kts | 93° |
| 2026-04-27 12:01 | 23.23618 | 78.41630 | 32664 ft | 520 kts | 93° |
| 2026-04-27 12:02 | 23.23246 | 78.49485 | 32674 ft | 520 kts | 93° |
| 2026-04-27 12:02 | 23.22870 | 78.57359 | 32668 ft | 519 kts | 93° |
| 2026-04-27 12:03 | 23.22490 | 78.65211 | 32676 ft | 519 kts | 93° |
| 2026-04-27 12:03 | 23.22108 | 78.73064 | 32672 ft | 519 kts | 92° |
| 2026-04-27 12:04 | 23.21951 | 78.80878 | 32683 ft | 518 kts | 91° |
| 2026-04-27 12:04 | 23.21845 | 78.88732 | 32683 ft | 518 kts | 91° |
| 2026-04-27 12:05 | 23.21733 | 78.96579 | 32687 ft | 518 kts | 91° |
| 2026-04-27 12:05 | 23.21625 | 79.03657 | 32689 ft | 518 kts | 91° |
| 2026-04-27 12:06 | 23.21501 | 79.11452 | 32687 ft | 518 kts | 91° |
| 2026-04-27 12:06 | 23.21373 | 79.19297 | 32698 ft | 518 kts | 91° |
| 2026-04-27 12:07 | 23.21240 | 79.27140 | 32703 ft | 518 kts | 91° |
| 2026-04-27 12:07 | 23.21103 | 79.34986 | 32707 ft | 518 kts | 92° |
| 2026-04-27 12:08 | 23.20962 | 79.42825 | 32709 ft | 518 kts | 92° |
| 2026-04-27 12:08 | 23.20819 | 79.50618 | 32703 ft | 518 kts | 92° |
| 2026-04-27 12:09 | 23.20657 | 79.58477 | 32706 ft | 518 kts | 92° |
| 2026-04-27 12:09 | 23.20336 | 79.66333 | 32704 ft | 519 kts | 94° |
| 2026-04-27 12:10 | 23.19983 | 79.74192 | 32713 ft | 520 kts | 93° |
| 2026-04-27 12:10 | 23.19639 | 79.82058 | 32723 ft | 521 kts | 93° |
| 2026-04-27 12:11 | 23.19298 | 79.89952 | 32729 ft | 522 kts | 93° |
| 2026-04-27 12:11 | 23.18956 | 79.97800 | 32731 ft | 523 kts | 93° |
| 2026-04-27 12:12 | 23.18641 | 80.04942 | 32730 ft | 523 kts | 93° |
| 2026-04-27 12:12 | 23.18256 | 80.12868 | 32733 ft | 524 kts | 94° |
| 2026-04-27 12:13 | 23.17841 | 80.20809 | 32731 ft | 524 kts | 94° |
| 2026-04-27 12:13 | 23.17428 | 80.28693 | 32722 ft | 525 kts | 94° |
| 2026-04-27 12:14 | 23.17007 | 80.36685 | 32722 ft | 525 kts | 94° |
| 2026-04-27 12:14 | 23.16589 | 80.44579 | 32717 ft | 525 kts | 94° |
| 2026-04-27 12:15 | 23.16164 | 80.52531 | 32721 ft | 525 kts | 94° |
| 2026-04-27 12:15 | 23.15735 | 80.60474 | 32723 ft | 525 kts | 94° |
| 2026-04-27 12:16 | 23.15305 | 80.68365 | 32722 ft | 525 kts | 94° |
| 2026-04-27 12:16 | 23.14869 | 80.76310 | 32723 ft | 525 kts | 94° |
| 2026-04-27 12:17 | 23.14437 | 80.84248 | 32725 ft | 525 kts | 94° |
| 2026-04-27 12:17 | 23.14008 | 80.92180 | 32724 ft | 524 kts | 94° |
| 2026-04-27 12:18 | 23.13648 | 80.98768 | 32725 ft | 524 kts | 94° |
| 2026-04-27 12:18 | 23.13181 | 81.07211 | 32723 ft | 524 kts | 94° |
| 2026-04-27 12:19 | 23.12738 | 81.15146 | 32724 ft | 524 kts | 94° |
| 2026-04-27 12:19 | 23.12292 | 81.23064 | 32717 ft | 524 kts | 94° |
| 2026-04-27 12:20 | 23.11844 | 81.30941 | 32720 ft | 525 kts | 94° |
| 2026-04-27 12:20 | 23.11389 | 81.38886 | 32715 ft | 525 kts | 94° |
| 2026-04-27 12:21 | 23.10928 | 81.46848 | 32845 ft | 529 kts | 94° |
| 2026-04-27 12:21 | 23.10696 | 81.50842 | 33206 ft | 528 kts | 94° |
| 2026-04-27 12:21 | 23.10464 | 81.54817 | 33615 ft | 526 kts | 94° |
| 2026-04-27 12:21 | 23.10231 | 81.58799 | 33922 ft | 526 kts | 94° |
| 2026-04-27 12:22 | 23.09996 | 81.62772 | 34141 ft | 528 kts | 94° |
| 2026-04-27 12:22 | 23.09759 | 81.66766 | 34333 ft | 530 kts | 94° |
| 2026-04-27 12:22 | 23.09519 | 81.70773 | 34546 ft | 532 kts | 94° |
| 2026-04-27 12:22 | 23.09279 | 81.74799 | 34688 ft | 533 kts | 95° |
| 2026-04-27 12:23 | 23.09040 | 81.78777 | 34692 ft | 534 kts | 95° |
| 2026-04-27 12:23 | 23.08551 | 81.86863 | 34694 ft | 535 kts | 95° |
| 2026-04-27 12:24 | 23.08059 | 81.94952 | 34688 ft | 536 kts | 95° |
| 2026-04-27 12:24 | 23.07614 | 82.02223 | 34686 ft | 537 kts | 95° |
| 2026-04-27 12:25 | 23.07113 | 82.10335 | 34682 ft | 538 kts | 95° |
| 2026-04-27 12:25 | 23.06619 | 82.18453 | 34676 ft | 538 kts | 94° |
| 2026-04-27 12:26 | 23.06262 | 82.26584 | 34678 ft | 538 kts | 93° |
| 2026-04-27 12:26 | 23.05928 | 82.34742 | 34673 ft | 539 kts | 93° |
| 2026-04-27 12:27 | 23.05581 | 82.42830 | 34669 ft | 539 kts | 94° |
| 2026-04-27 12:27 | 23.05220 | 82.50968 | 34667 ft | 539 kts | 94° |
| 2026-04-27 12:28 | 23.04853 | 82.59114 | 34671 ft | 539 kts | 93° |
| 2026-04-27 12:28 | 23.04482 | 82.67260 | 34678 ft | 539 kts | 93° |
| 2026-04-27 12:29 | 23.04171 | 82.74042 | 34684 ft | 539 kts | 93° |
| 2026-04-27 12:29 | 23.03792 | 82.82194 | 34687 ft | 539 kts | 93° |
| 2026-04-27 12:30 | 23.03412 | 82.90296 | 34691 ft | 539 kts | 94° |
| 2026-04-27 12:30 | 23.03025 | 82.98442 | 34697 ft | 539 kts | 94° |
| 2026-04-27 12:31 | 23.02673 | 83.05796 | 34705 ft | 539 kts | 94° |
| 2026-04-27 12:31 | 23.02278 | 83.13941 | 34712 ft | 539 kts | 94° |
| 2026-04-27 12:32 | 23.01879 | 83.22082 | 34717 ft | 539 kts | 94° |
| 2026-04-27 12:32 | 23.01476 | 83.30218 | 34725 ft | 539 kts | 94° |
| 2026-04-27 12:33 | 23.01071 | 83.38310 | 34733 ft | 539 kts | 94° |
| 2026-04-27 12:33 | 23.00659 | 83.46462 | 34736 ft | 539 kts | 94° |
| 2026-04-27 12:34 | 23.00243 | 83.54607 | 34739 ft | 539 kts | 94° |
| 2026-04-27 12:34 | 22.99864 | 83.61956 | 34740 ft | 539 kts | 94° |
| 2026-04-27 12:35 | 22.99444 | 83.70038 | 34746 ft | 538 kts | 94° |
| 2026-04-27 12:35 | 22.99017 | 83.78174 | 34746 ft | 539 kts | 94° |
| 2026-04-27 12:36 | 22.98585 | 83.86315 | 34751 ft | 539 kts | 94° |
| 2026-04-27 12:36 | 22.98149 | 83.94464 | 34749 ft | 540 kts | 94° |
| 2026-04-27 12:37 | 22.97707 | 84.02655 | 34750 ft | 540 kts | 94° |
| 2026-04-27 12:37 | 22.97265 | 84.10759 | 34753 ft | 540 kts | 94° |
| 2026-04-27 12:38 | 22.96749 | 84.18911 | 34759 ft | 541 kts | 95° |
| 2026-04-27 12:38 | 22.96140 | 84.27111 | 34762 ft | 541 kts | 95° |
| 2026-04-27 12:39 | 22.95534 | 84.35276 | 34765 ft | 541 kts | 95° |
| 2026-04-27 12:39 | 22.94933 | 84.43444 | 34766 ft | 541 kts | 95° |
| 2026-04-27 12:40 | 22.94331 | 84.51603 | 34772 ft | 542 kts | 95° |
| 2026-04-27 12:40 | 22.93726 | 84.59765 | 34771 ft | 542 kts | 95° |
| 2026-04-27 12:41 | 22.93119 | 84.67891 | 34770 ft | 543 kts | 95° |
| 2026-04-27 12:41 | 22.92504 | 84.76080 | 34770 ft | 543 kts | 95° |
| 2026-04-27 12:42 | 22.91883 | 84.84285 | 34772 ft | 544 kts | 95° |
| 2026-04-27 12:42 | 22.91258 | 84.92484 | 34773 ft | 545 kts | 95° |
| 2026-04-27 12:43 | 22.90681 | 85.00000 | 34772 ft | 546 kts | 95° |
| 2026-04-27 12:43 | 22.90057 | 85.08090 | 34771 ft | 547 kts | 95° |
| 2026-04-27 12:44 | 22.89416 | 85.16341 | 34769 ft | 548 kts | 95° |
| 2026-04-27 12:44 | 22.88777 | 85.24599 | 34768 ft | 549 kts | 95° |
| 2026-04-27 12:45 | 22.88136 | 85.32875 | 34766 ft | 549 kts | 95° |
| 2026-04-27 12:45 | 22.87494 | 85.41094 | 34766 ft | 550 kts | 95° |
| 2026-04-27 12:46 | 22.86841 | 85.49392 | 34765 ft | 550 kts | 96° |
| 2026-04-27 12:46 | 22.86184 | 85.57673 | 34760 ft | 551 kts | 96° |
| 2026-04-27 12:47 | 22.85524 | 85.65966 | 34763 ft | 551 kts | 96° |
| 2026-04-27 12:47 | 22.84858 | 85.74262 | 34751 ft | 550 kts | 96° |
| 2026-04-27 12:48 | 22.84187 | 85.82562 | 34727 ft | 552 kts | 96° |
| 2026-04-27 12:48 | 22.83516 | 85.90822 | 34694 ft | 552 kts | 96° |
| 2026-04-27 12:49 | 22.82836 | 85.99131 | 34650 ft | 552 kts | 96° |
| 2026-04-27 12:49 | 22.82220 | 86.06620 | 34624 ft | 551 kts | 96° |
| 2026-04-27 12:50 | 22.81532 | 86.14929 | 34621 ft | 552 kts | 96° |
| 2026-04-27 12:50 | 22.80947 | 86.23255 | 34622 ft | 552 kts | 94° |
| 2026-04-27 12:51 | 22.80533 | 86.31519 | 34642 ft | 552 kts | 93° |
| 2026-04-27 12:51 | 22.80108 | 86.39842 | 34672 ft | 551 kts | 94° |
| 2026-04-27 12:52 | 22.79661 | 86.48170 | 34704 ft | 552 kts | 94° |
| 2026-04-27 12:52 | 22.79204 | 86.56491 | 34731 ft | 551 kts | 94° |
| 2026-04-27 12:53 | 22.78508 | 86.68938 | 34724 ft | 550 kts | 93° |
| 2026-04-27 12:53 | 22.78042 | 86.77190 | 34725 ft | 549 kts | 93° |
| 2026-04-27 12:54 | 22.77570 | 86.85453 | 34716 ft | 548 kts | 93° |
| 2026-04-27 12:54 | 22.77096 | 86.93703 | 34708 ft | 547 kts | 93° |
| 2026-04-27 12:55 | 22.76665 | 87.01138 | 34704 ft | 546 kts | 93° |
| 2026-04-27 12:55 | 22.76187 | 87.09316 | 34700 ft | 545 kts | 93° |
| 2026-04-27 12:56 | 22.75703 | 87.17542 | 34696 ft | 546 kts | 93° |
| 2026-04-27 12:56 | 22.75213 | 87.25779 | 34689 ft | 547 kts | 93° |
| 2026-04-27 12:57 | 22.74718 | 87.34021 | 34683 ft | 547 kts | 93° |
| 2026-04-27 12:57 | 22.74218 | 87.42280 | 34684 ft | 548 kts | 93° |
| 2026-04-27 12:58 | 22.73717 | 87.50486 | 34678 ft | 548 kts | 93° |
| 2026-04-27 12:58 | 22.73209 | 87.58743 | 34679 ft | 548 kts | 93° |
| 2026-04-27 12:59 | 22.72696 | 87.66996 | 34675 ft | 548 kts | 93° |
| 2026-04-27 12:59 | 22.72180 | 87.75243 | 34672 ft | 547 kts | 93° |
| 2026-04-27 13:00 | 22.71660 | 87.83478 | 34671 ft | 547 kts | 93° |
| 2026-04-27 13:00 | 22.71135 | 87.91732 | 34667 ft | 547 kts | 93° |
| 2026-04-27 13:01 | 22.70606 | 87.99970 | 34665 ft | 547 kts | 93° |
| 2026-04-27 13:01 | 22.70130 | 88.07341 | 34661 ft | 547 kts | 93° |
| 2026-04-27 13:02 | 22.69592 | 88.15596 | 34657 ft | 547 kts | 93° |
| 2026-04-27 13:02 | 22.69052 | 88.23832 | 34654 ft | 547 kts | 93° |
| 2026-04-27 13:03 | 22.68511 | 88.32020 | 34649 ft | 547 kts | 93° |
| 2026-04-27 13:03 | 22.67962 | 88.40266 | 34646 ft | 546 kts | 93° |
| 2026-04-27 13:04 | 22.67078 | 88.48455 | 34648 ft | 546 kts | 99° |
| 2026-04-27 13:04 | 22.65734 | 88.56567 | 34647 ft | 546 kts | 100° |
| 2026-04-27 13:05 | 22.64363 | 88.64658 | 34657 ft | 545 kts | 100° |
| 2026-04-27 13:05 | 22.64142 | 88.65969 | 34659 ft | 545 kts | 99° |